Weather History for Shawnee, OK

Change the Weather History Date:

Monday, November 19, 2012

  Actual Average (KTIK) Record (KTIK)
Temperature  
Mean Temperature 66 °F -  
Max Temperature 77 °F 56 °F 77 °F (2011)
Min Temperature 55 °F 38 °F 30 °F (2000)
Cooling Degree Days 1    
Growing Degree Days 16 (Base 50)    
Moisture  
Dew Point 51 °F    
Average Humidity 65    
Maximum Humidity 94    
Minimum Humidity 50    
Precipitation  
Precipitation 0.00 in - - ()
Sea Level Pressure  
Sea Level Pressure 30.15 in    
Wind  
Wind Speed 10 mph (South)    
Max Wind Speed 17 mph    
Max Gust Speed 23 mph    
Visibility 10 miles    
Events      
Averages and records for this station are not official NWS values.
T = Trace of Precipitation, MM = Missing Value Source: NWS Daily Summary

Daily Weather History Graph

Daily Weather History Graph

Search for Another Location

Airport:

Trip Planner

Search our weather history database for the weather conditions in past years. The results will help you decide how hot, cold, wet, or windy it might be!

Date:

Astronomy

Nov. 19, 2012 Rise Set
Actual Time 7:07 AM CST 5:18 PM CST
Civil Twilight 6:40 AM CST 5:46 PM CST
Nautical Twilight 6:09 AM CST 6:17 PM CST
Astronomical Twilight 5:38 AM CST 6:47 PM CST
Moon 12:15 PM CST (11/19) 11:41 PM CST (11/19)
Length of Visible Light 11h 06m
Length of Day
10h 11m
Waxing Crescent, 41% of the Moon is Illuminated
Nov 19
Waxing Crescent
Nov 20
First Quarter
Nov 28
Full
Dec 6
Last Quarter
Dec 13
New

Hourly Weather History & Observations

Time (CST) Temp. Dew Point Humidity Pressure Visibility Wind Dir Wind Speed Gust Speed Precip Events Conditions
12:15 AM 59.0 °F 44.6 °F 59% 30.17 in 10.0 mi SSE 12.7 mph 16.1 mph N/A   Overcast
12:35 AM 59.0 °F 44.6 °F 59% 30.17 in 10.0 mi SSE 11.5 mph - N/A   Overcast
1:15 AM 59.0 °F 44.6 °F 59% 30.16 in 10.0 mi South 10.4 mph - N/A   Overcast
1:35 AM 59.0 °F 44.6 °F 59% 30.16 in 10.0 mi SSE 9.2 mph - N/A   Overcast
1:55 AM 59.0 °F 44.6 °F 59% 30.16 in 10.0 mi SSE 8.1 mph - N/A   Overcast
2:15 AM 59.0 °F 44.6 °F 59% 30.16 in 10.0 mi South 9.2 mph - N/A   Overcast
2:35 AM 59.0 °F 44.6 °F 59% 30.17 in 10.0 mi South 8.1 mph - N/A   Overcast
2:55 AM 59.0 °F 44.6 °F 59% 30.17 in 10.0 mi South 11.5 mph - N/A   Overcast
3:15 AM 59.0 °F 44.6 °F 59% 30.17 in 10.0 mi South 12.7 mph - N/A   Overcast
3:35 AM 59.0 °F 46.4 °F 63% 30.16 in 10.0 mi South 11.5 mph - N/A   Overcast
3:55 AM 57.2 °F 44.6 °F 63% 30.14 in 10.0 mi South 17.3 mph 23.0 mph N/A   Mostly Cloudy
4:15 AM 57.2 °F 44.6 °F 63% 30.15 in 10.0 mi SSE 12.7 mph 19.6 mph N/A   Overcast
4:55 AM 57.2 °F 44.6 °F 63% 30.15 in 10.0 mi South 10.4 mph - N/A   Mostly Cloudy
5:15 AM 57.2 °F 44.6 °F 63% 30.15 in 10.0 mi SSE 12.7 mph - N/A   Overcast
5:35 AM 57.2 °F 44.6 °F 63% 30.14 in 10.0 mi South 13.8 mph - N/A   Overcast
5:55 AM 55.4 °F 44.6 °F 67% 30.14 in 10.0 mi South 12.7 mph 19.6 mph N/A   Mostly Cloudy
6:15 AM 55.4 °F 44.6 °F 67% 30.14 in 10.0 mi South 10.4 mph - N/A   Scattered Clouds
6:35 AM 55.4 °F 44.6 °F 67% 30.14 in 10.0 mi South 12.7 mph - N/A   Scattered Clouds
6:55 AM 55.4 °F 44.6 °F 67% 30.15 in 10.0 mi South 10.4 mph - N/A   Scattered Clouds
7:15 AM 55.4 °F 44.6 °F 67% 30.15 in 10.0 mi South 10.4 mph - N/A   Scattered Clouds
7:35 AM 55.4 °F 44.6 °F 67% 30.16 in 10.0 mi South 11.5 mph - N/A   Clear
7:55 AM 55.4 °F 44.6 °F 67% 30.16 in 10.0 mi South 12.7 mph - N/A   Scattered Clouds
8:15 AM 59.0 °F 44.6 °F 59% 30.17 in 10.0 mi South 11.5 mph - N/A   Scattered Clouds
8:35 AM 59.0 °F 44.6 °F 59% 30.16 in 10.0 mi South 10.4 mph - N/A   Scattered Clouds
9:15 AM 60.8 °F 46.4 °F 59% 30.16 in 10.0 mi South 15.0 mph - N/A   Clear
9:35 AM 62.6 °F 46.4 °F 55% 30.17 in 10.0 mi SSW 11.5 mph - N/A   Clear
9:55 AM 64.4 °F 50.0 °F 59% 30.16 in 10.0 mi South 11.5 mph 18.4 mph N/A   Clear
10:15 AM 68.0 °F 51.8 °F 56% 30.16 in 10.0 mi SSW 13.8 mph - N/A   Clear
10:35 AM 68.0 °F 51.8 °F 56% 30.16 in 10.0 mi SSW 13.8 mph 19.6 mph N/A   Clear
10:55 AM 71.6 °F 53.6 °F 53% 30.16 in 10.0 mi SSW 10.4 mph - N/A   Clear
11:15 AM 71.6 °F 55.4 °F 57% 30.16 in 10.0 mi SW 13.8 mph 17.3 mph N/A   Clear
11:35 AM 71.6 °F 55.4 °F 57% 30.16 in 10.0 mi SW 13.8 mph - N/A   Clear
11:55 AM 71.6 °F 55.4 °F 57% 30.15 in 10.0 mi SSW 13.8 mph 19.6 mph N/A   Clear
12:15 PM 71.6 °F 53.6 °F 53% 30.14 in 10.0 mi SSW 11.5 mph 16.1 mph N/A   Clear
12:35 PM 71.6 °F 53.6 °F 53% 30.13 in 10.0 mi SSW 10.4 mph - N/A   Clear
12:55 PM 71.6 °F 55.4 °F 57% 30.13 in 10.0 mi SSW 11.5 mph 16.1 mph N/A   Clear
1:15 PM 73.4 °F 55.4 °F 53% 30.12 in 10.0 mi SW 10.4 mph - N/A   Clear
1:35 PM 73.4 °F 55.4 °F 53% 30.12 in 10.0 mi South 11.5 mph - N/A   Clear
1:55 PM 73.4 °F 55.4 °F 53% 30.12 in 10.0 mi SSW 6.9 mph 16.1 mph N/A   Clear
2:15 PM 73.4 °F 55.4 °F 53% 30.12 in 10.0 mi SW 9.2 mph - N/A   Clear
2:35 PM 73.4 °F 55.4 °F 53% 30.12 in 10.0 mi SSW 6.9 mph - N/A   Clear
2:55 PM 77.0 °F 57.2 °F 50% 30.11 in 10.0 mi SW 6.9 mph - N/A   Clear
3:15 PM 73.4 °F 55.4 °F 53% 30.10 in 7.0 mi SSW 8.1 mph - N/A   Clear
3:35 PM 73.4 °F 57.2 °F 57% 30.11 in 10.0 mi SSW 6.9 mph - N/A   Clear
3:55 PM 73.4 °F 57.2 °F 57% 30.10 in 10.0 mi South 6.9 mph - N/A   Clear
4:15 PM 73.4 °F 57.2 °F 57% 30.11 in 10.0 mi SSE 9.2 mph - N/A   Clear
4:35 PM 71.6 °F 55.4 °F 57% 30.12 in 10.0 mi South 9.2 mph - N/A   Clear
4:55 PM 71.6 °F 55.4 °F 57% 30.12 in 10.0 mi South 4.6 mph - N/A   Clear
5:15 PM 71.6 °F 59.0 °F 64% 30.12 in 10.0 mi South 4.6 mph - N/A   Clear
5:35 PM 69.8 °F 57.2 °F 64% 30.12 in 10.0 mi SSE 4.6 mph - N/A   Clear
5:55 PM 68.0 °F 55.4 °F 64% 30.13 in 10.0 mi SE 4.6 mph - N/A   Clear
6:15 PM 68.0 °F 55.4 °F 64% 30.13 in 10.0 mi SE 4.6 mph - N/A   Clear
6:35 PM 66.2 °F 55.4 °F 68% 30.14 in 10.0 mi SE 3.5 mph - N/A   Clear
6:55 PM 64.4 °F 55.4 °F 73% 30.15 in 10.0 mi SSE 5.8 mph - N/A   Clear
7:15 PM 62.6 °F 55.4 °F 77% 30.15 in 10.0 mi SSE 8.1 mph - N/A   Clear
7:35 PM 62.6 °F 55.4 °F 77% 30.15 in 10.0 mi South 6.9 mph - N/A   Clear
7:55 PM 62.6 °F 55.4 °F 77% 30.16 in 10.0 mi South 5.8 mph - N/A   Clear
8:15 PM 62.6 °F 55.4 °F 77% 30.16 in 10.0 mi South 6.9 mph - N/A   Clear
8:35 PM 62.6 °F 55.4 °F 77% 30.16 in 10.0 mi South 5.8 mph - N/A   Clear
8:55 PM 60.8 °F 55.4 °F 82% 30.17 in 10.0 mi South 5.8 mph - N/A   Clear
9:15 PM 60.8 °F 57.2 °F 88% 30.16 in 10.0 mi South 8.1 mph - N/A   Clear
9:35 PM 60.8 °F 57.2 °F 88% 30.16 in 10.0 mi South 6.9 mph - N/A   Clear
9:55 PM 60.8 °F 59.0 °F 94% 30.16 in 10.0 mi South 6.9 mph - N/A   Clear
10:15 PM 59.0 °F 57.2 °F 94% 30.17 in 10.0 mi South 4.6 mph - N/A   Clear
10:35 PM 59.0 °F 55.4 °F 88% 30.17 in 10.0 mi South 5.8 mph - N/A   Clear
10:55 PM 59.0 °F 55.4 °F 88% 30.17 in 10.0 mi South 3.5 mph - N/A   Clear
11:15 PM 59.0 °F 55.4 °F 88% 30.16 in 10.0 mi Calm Calm - N/A   Clear
11:35 PM 57.2 °F 55.4 °F 94% 30.17 in 10.0 mi Calm Calm - N/A   Clear
11:55 PM 55.4 °F 53.6 °F 94% 30.16 in 10.0 mi Calm Calm - N/A   Clear